• Join FlightAware (Why Join?)
  • Login
  • US Flag 
07:34PM EDT


 

Airport Tracker/Info


-or-


 

Live Flight TrackerFlight Track Log ✈ UAL4846 ✈ 22-Apr-2013 ✈ KROC - KEWR

Flight Track Log - Related Links

Times and Time Zones

All times are in EDT time to prevent confusion due to time zone crossing. See the UAL4846 flight status page for this flight to view local times or setup timezone preferences in your user account.

Time Position Orientation Groundspeed Altitude Reporting Facility
EDT Latitude Longitude Course Direction KTS MPH feet Rate Location/Type
08:21AM 43.1036 -77.6914 124° Southeast 138 159 1,300  Level Cleveland Center
08:22AM 43.0681 -77.6928 182° South 163 188 2,500 1,200 Climbing Cleveland Center
08:23AM 43.0481 -77.6369 116° Southeast 174 200 3,900 1,320 Climbing Cleveland Center
08:24AM 43.0367 -77.6006 113° Southeast 173 199 4,800 1,560 Climbing Cleveland Center
08:24AM 43.0297 -77.5783 113° Southeast 168 193 5,500 1,560 Climbing Cleveland Center
08:25AM 43.0183 -77.5419 113° Southeast 182 209 6,400 1,380 Climbing Cleveland Center
08:26AM 42.9261 -77.2355 124° Southeast  Level FlightAware Approximate
08:26AM 43.0064 -77.4772 104° East 182 209 7,900  Level Cleveland Center
08:27AM 42.8976 -77.1617 124° Southeast  Level FlightAware Approximate
08:27AM 42.9942 -77.4125 104° East 182 209 9,200  Level Cleveland Center
08:29AM 42.9572 -77.2867 112° Southeast 182 209 11,700 840 Climbing Cleveland Center
08:32AM 42.8861 -77.1217 120° Southeast 209 241 13,000 360 Climbing New York Center
08:33AM 42.8508 -77.0389 120° Southeast 235 270 13,000  Level New York Center
08:34AM 42.8139 -76.9533 120° Southeast 255 293 13,000  Level New York Center
08:34AM 42.7786 -76.8792 123° Southeast 260 299 13,000  Level Boston Center
08:35AM 42.7439 -76.8058 123° Southeast 265 305 13,000  Level Boston Center
08:36AM 42.7053 -76.7242 123° Southeast 265 305 13,000  Level Boston Center
08:37AM 42.6689 -76.6367 119° Southeast 265 305 13,000  Level Boston Center
08:39AM 42.6303 -76.5550 123° Southeast 265 305 13,000  Level Boston Center
08:40AM 42.5858 -76.4533 121° Southeast 265 305 13,000  Level Boston Center
08:41AM 42.5492 -76.3719 121° Southeast 265 305 13,000  Level Boston Center
08:42AM 42.5103 -76.2878 122° Southeast 265 305 13,000  Level Boston Center
08:43AM 42.4756 -76.2042 119° Southeast 265 305 13,000  Level Boston Center
08:44AM 42.4364 -76.1231 123° Southeast 260 299 13,000  Level Boston Center
08:45AM 42.3956 -76.0361 122° Southeast 266 306 13,000  Level Boston Center
08:46AM 42.3606 -75.9556 120° Southeast 256 295 13,000  Level Boston Center
08:47AM 42.3214 -75.8744 123° Southeast 262 302 13,000  Level Boston Center
08:48AM 42.2864 -75.7883 119° Southeast 257 296 13,000  Level Boston Center
08:49AM 42.2469 -75.7078 123° Southeast 262 302 13,000  Level Boston Center
08:50AM 42.2078 -75.6217 122° Southeast 262 302 13,000  Level Boston Center
08:51AM 42.1683 -75.5411 123° Southeast 262 302 13,000  Level Boston Center
08:52AM 42.1289 -75.4581 123° Southeast 262 302 13,100  Climbing Boston Center
08:53AM 42.0914 -75.3750 121° Southeast 262 302 13,100  Level Boston Center
08:54AM 42.0539 -75.2922 121° Southeast 262 302 13,100 -60 Level Boston Center
08:55AM 42.0208 -75.2042 117° Southeast 262 302 13,000 -60 Descending Boston Center
08:56AM 41.9833 -75.1075 118° Southeast 257 296 13,000  Level Boston Center
08:57AM 41.9539 -75.0281 116° Southeast 262 302 13,000 -300 Level Boston Center
08:58AM 41.9100 -74.9425 125° Southeast 262 302 12,400 -840 Descending Boston Center
08:59AM 41.8614 -74.8792 136° Southeast 267 307 11,400 -1,140 Descending Boston Center
09:00AM 41.8047 -74.8019 135° Southeast 274 315 10,200 -1,140 Descending Boston Center
09:01AM 41.7622 -74.7419 134° Southeast 258 297 9,200 -1,080 Descending Boston Center
09:02AM 41.7094 -74.6647 132° Southeast 253 291 8,100 -600 Descending Boston Center
09:03AM 41.6669 -74.6078 135° Southeast 248 285 8,000 -540 Descending Boston Center
09:04AM 41.6053 -74.5556 148° Southeast 248 285 7,100 -960 Descending Boston Center
09:05AM 41.5447 -74.5675 188° South 228 262 6,100 -600 Descending Boston Center
09:06AM 41.4714 -74.5789 187° South 240 276 6,000 -60 Descending Boston Center
09:07AM 41.3667 -74.6000 189° South 244 281 6,000  Level New York TRACON
09:08AM 41.3000 -74.6333 201° Southwest 244 281 6,000  Level New York TRACON
09:09AM 41.2333 -74.6167 169° South 238 274 6,000  Level New York TRACON
09:10AM 41.1833 -74.6000 166° South 237 273 6,000  Level New York TRACON
09:11AM 41.1167 -74.5833 169° South 235 270 6,000  Level New York TRACON
09:12AM 41.0500 -74.5667 169° South 234 269 6,000  Level New York TRACON
09:13AM 40.9833 -74.5500 169° South 234 269 6,000  Level New York TRACON
09:14AM 40.9167 -74.5333 169° South 234 269 6,000  Level New York TRACON
09:15AM 40.8667 -74.5167 166° South 234 269 6,000  Level New York TRACON
09:16AM 40.8000 -74.5167 180° South 234 269 6,000  Level New York TRACON
09:17AM 40.7333 -74.5167 180° South 236 272 6,000 -300 Level New York TRACON
09:18AM 40.6667 -74.5167 180° South 240 276 5,400 -540 Descending New York TRACON
09:19AM 40.6000 -74.5167 180° South 230 265 5,000 -240 Descending New York TRACON
09:20AM 40.5333 -74.5167 180° South 232 267 5,000  Level New York TRACON
09:21AM 40.4667 -74.5000 169° South 235 270 5,000 -600 Level New York TRACON
09:22AM 40.4500 -74.4500 114° Southeast 217 250 3,900 -1,080 Descending New York TRACON
09:23AM 40.4667 -74.3833 72° East 198 228 3,000 -480 Descending New York TRACON
09:24AM 40.5000 -74.3167 57° Northeast 190 219 3,000  Level New York TRACON
09:25AM 40.5333 -74.2667 49° Northeast 176 203 3,000 -300 Level New York TRACON
09:26AM 40.5667 -74.2333 37° Northeast 176 203 2,500 -840 Descending New York TRACON
09:27AM 40.6167 -74.2167 14° North 184 212 1,500 -960 Descending New York TRACON
09:28AM 40.6500 -74.1833 37° Northeast 135 155 600 -900 Descending New York TRACON